createdAt,value
2023-05-01T00:00:20.126Z,5.33
2023-05-01T00:02:54.579Z,4.80
2023-05-01T00:05:24.832Z,5.23
2023-05-01T00:07:53.648Z,6.23
2023-05-01T00:10:22.467Z,7.93
2023-05-01T00:12:51.328Z,5.50
2023-05-01T00:15:20.258Z,5.20
2023-05-01T00:17:49.282Z,6.57
2023-05-01T00:20:17.913Z,6.30
2023-05-01T00:22:47.835Z,5.47
2023-05-01T00:25:16.801Z,5.03
2023-05-01T00:27:47.255Z,5.43
2023-05-01T00:30:16.112Z,7.10
2023-05-01T00:32:44.986Z,5.23
2023-05-01T00:35:13.842Z,7.93
2023-05-01T00:37:42.729Z,6.37
2023-05-01T00:40:14.089Z,6.67
2023-05-01T00:42:43.325Z,5.27
2023-05-01T00:45:12.828Z,8.77
2023-05-01T00:47:41.944Z,6.50
2023-05-01T00:50:11.982Z,6.80
2023-05-01T00:52:41.179Z,6.73
2023-05-01T00:55:13.047Z,7.33
2023-05-01T00:57:42.443Z,6.50
2023-05-01T01:00:12.835Z,7.10
2023-05-01T01:02:42.179Z,7.57
2023-05-01T01:05:11.689Z,6.10
2023-05-01T01:07:47.325Z,7.27
2023-05-01T01:10:24.977Z,5.80
2023-05-01T01:13:04.572Z,5.60
2023-05-01T01:15:41.591Z,9.00
2023-05-01T01:18:13.902Z,8.50
2023-05-01T01:20:48.126Z,7.70
2023-05-01T01:23:44.088Z,6.87
2023-05-01T01:26:35.339Z,8.10
2023-05-01T01:29:40.570Z,8.60
2023-05-01T01:32:36.050Z,7.73
2023-05-01T01:35:13.908Z,8.47
2023-05-01T01:37:53.176Z,7.13
2023-05-01T01:40:30.897Z,8.10
2023-05-01T01:43:06.745Z,6.53
2023-05-01T01:45:42.515Z,5.20
2023-05-01T01:48:17.817Z,6.27
2023-05-01T01:50:50.249Z,8.50
2023-05-01T01:53:21.717Z,7.83
2023-05-01T01:55:51.796Z,8.13
2023-05-01T01:58:26.242Z,7.37
2023-05-01T02:00:59.313Z,8.33
2023-05-01T02:03:28.830Z,9.07
2023-05-01T02:06:01.982Z,11.03
2023-05-01T02:08:33.005Z,6.33
2023-05-01T02:11:02.572Z,7.80
2023-05-01T02:13:32.724Z,8.53
2023-05-01T02:16:04.090Z,8.67
2023-05-01T02:18:34.851Z,5.73
2023-05-01T02:21:06.983Z,8.27
2023-05-01T02:23:40.223Z,9.07
2023-05-01T02:26:17.667Z,7.73
2023-05-01T02:28:47.228Z,7.90
2023-05-01T02:31:16.133Z,9.60
2023-05-01T02:33:45.779Z,8.77
2023-05-01T02:36:16.230Z,9.17
2023-05-01T02:38:47.292Z,7.03
2023-05-01T02:41:17.626Z,8.67
2023-05-01T02:43:50.325Z,8.70
2023-05-01T02:46:21.799Z,7.83
2023-05-01T02:48:51.786Z,8.43
2023-05-01T02:51:24.954Z,10.93
2023-05-01T02:53:55.389Z,10.97
2023-05-01T02:56:28.129Z,9.17
2023-05-01T02:58:57.299Z,11.57
2023-05-01T03:01:26.016Z,8.47
2023-05-01T03:03:54.959Z,9.50
2023-05-01T03:06:24.863Z,9.07
2023-05-01T03:08:53.640Z,8.57
2023-05-01T03:11:22.466Z,8.37
2023-05-01T03:13:51.394Z,8.50
2023-05-01T03:16:20.226Z,9.23
2023-05-01T03:18:49.099Z,7.77
2023-05-01T03:21:19.230Z,8.17
2023-05-01T03:23:49.578Z,9.20
2023-05-01T03:26:18.343Z,9.57
2023-05-01T03:28:47.558Z,8.97
2023-05-01T03:31:16.668Z,9.20
2023-05-01T03:33:46.374Z,9.90
2023-05-01T03:36:16.489Z,9.80
2023-05-01T03:38:49.462Z,8.53
2023-05-01T03:41:38.538Z,11.53
2023-05-01T03:44:27.702Z,10.67
2023-05-01T03:46:56.688Z,8.60
2023-05-01T03:49:30.382Z,8.80
2023-05-01T03:51:58.923Z,10.70
2023-05-01T03:54:30.544Z,8.83
2023-05-01T03:57:01.929Z,10.60
2023-05-01T03:59:31.595Z,10.73
2023-05-01T04:02:00.813Z,11.07
2023-05-01T04:04:32.456Z,9.57
2023-05-01T04:07:01.997Z,9.67
2023-05-01T04:09:31.907Z,12.97
2023-05-01T04:12:02.329Z,9.77
2023-05-01T04:14:31.507Z,11.80
2023-05-01T04:17:00.974Z,9.63
2023-05-01T04:19:31.752Z,9.67
2023-05-01T04:22:01.658Z,9.60
2023-05-01T04:24:34.119Z,9.43
2023-05-01T04:27:03.127Z,9.70
2023-05-01T04:29:32.476Z,9.17
2023-05-01T04:32:01.754Z,10.80
2023-05-01T04:34:30.978Z,11.57
2023-05-01T04:37:00.049Z,10.63
2023-05-01T04:39:29.324Z,12.97
2023-05-01T04:42:00.699Z,10.20
2023-05-01T04:44:29.601Z,11.90
2023-05-01T04:46:58.281Z,10.97
2023-05-01T04:49:27.016Z,11.57
2023-05-01T04:51:55.757Z,10.37
2023-05-01T04:54:28.116Z,13.43
2023-05-01T04:56:56.839Z,8.53
2023-05-01T04:59:26.910Z,11.17
2023-05-01T05:01:57.553Z,9.73
2023-05-01T05:04:26.269Z,9.17
2023-05-01T05:06:55.046Z,10.27
2023-05-01T05:09:31.523Z,12.37
2023-05-01T05:11:59.909Z,9.73
2023-05-01T05:14:30.359Z,10.87
2023-05-01T05:16:59.131Z,9.90
2023-05-01T05:19:28.757Z,10.73
2023-05-01T05:21:57.546Z,10.63
2023-05-01T05:24:26.330Z,14.20
2023-05-01T05:26:54.996Z,9.40
2023-05-01T05:29:23.742Z,13.63
2023-05-01T05:31:53.962Z,10.40
2023-05-01T05:34:23.145Z,11.77
2023-05-01T05:36:52.024Z,13.63
2023-05-01T05:39:25.105Z,12.10
2023-05-01T05:41:53.961Z,10.63
2023-05-01T05:44:22.935Z,10.73
2023-05-01T05:46:53.653Z,9.57
2023-05-01T05:49:30.526Z,11.83
2023-05-01T05:51:58.882Z,12.87
2023-05-01T05:54:27.757Z,13.57
2023-05-01T05:56:56.763Z,12.07
2023-05-01T05:59:25.792Z,9.20
2023-05-01T06:01:55.889Z,11.47
2023-05-01T06:04:24.321Z,12.83
2023-05-01T06:06:53.350Z,11.40
2023-05-01T06:09:21.799Z,10.30
2023-05-01T06:11:50.431Z,15.63
2023-05-01T06:14:19.302Z,11.80
2023-05-01T06:16:48.297Z,11.23
2023-05-01T06:19:18.622Z,13.30
2023-05-01T06:21:50.167Z,11.23
2023-05-01T06:24:19.694Z,11.25
2023-05-01T06:26:50.472Z,12.50
2023-05-01T06:29:19.193Z,12.05
2023-05-01T06:31:48.196Z,12.13
2023-05-01T06:34:17.921Z,12.63
2023-05-01T06:36:53.647Z,11.40
2023-05-01T06:39:23.019Z,12.15
2023-05-01T06:41:52.340Z,11.60
2023-05-01T06:44:32.735Z,9.85
2023-05-01T06:47:03.692Z,9.48
2023-05-01T06:49:33.880Z,12.57
2023-05-01T06:52:02.669Z,10.30
2023-05-01T06:54:31.413Z,11.45
2023-05-01T06:57:00.129Z,9.88
2023-05-01T06:59:28.843Z,12.10
2023-05-01T07:01:57.556Z,9.65
2023-05-01T07:04:26.090Z,10.40
2023-05-01T07:06:56.217Z,9.43
2023-05-01T07:09:24.587Z,12.63
2023-05-01T07:11:53.226Z,11.20
2023-05-01T07:14:21.890Z,11.48
2023-05-01T07:16:51.025Z,10.15
2023-05-01T07:19:19.524Z,11.23
2023-05-01T07:21:47.930Z,9.50
2023-05-01T07:24:18.016Z,10.10
2023-05-01T07:26:46.713Z,12.68
2023-05-01T07:29:16.562Z,11.10
2023-05-01T07:31:45.999Z,14.07
2023-05-01T07:34:14.771Z,11.02
2023-05-01T07:36:43.647Z,9.80
2023-05-01T07:39:12.366Z,11.43
2023-05-01T07:41:42.456Z,10.90
2023-05-01T07:44:11.172Z,11.00
2023-05-01T07:46:40.359Z,10.70
2023-05-01T07:49:08.961Z,10.85
2023-05-01T07:51:37.641Z,10.35
2023-05-01T07:54:06.382Z,10.70
2023-05-01T07:56:35.041Z,12.00
2023-05-01T07:59:04.681Z,10.07
2023-05-01T08:01:34.905Z,10.65
2023-05-01T08:04:03.745Z,11.25
2023-05-01T08:06:33.003Z,11.50
2023-05-01T08:09:01.734Z,10.63
2023-05-01T08:11:30.641Z,12.13
2023-05-01T08:13:59.124Z,13.10
2023-05-01T08:16:28.942Z,10.95
2023-05-01T08:18:57.676Z,10.85
2023-05-01T08:21:26.563Z,9.63
2023-05-01T08:23:57.178Z,9.48
2023-05-01T08:26:25.626Z,10.32
2023-05-01T08:28:54.273Z,9.38
2023-05-01T08:31:25.184Z,10.80
2023-05-01T08:33:56.750Z,9.95
2023-05-01T08:36:25.556Z,10.35
2023-05-01T08:38:54.234Z,10.75
2023-05-01T08:41:24.232Z,8.88
2023-05-01T08:43:52.967Z,10.82
2023-05-01T08:46:34.864Z,12.32
2023-05-01T08:49:08.307Z,9.93
2023-05-01T08:51:39.782Z,10.63
2023-05-01T08:54:10.765Z,10.90
2023-05-01T08:56:40.700Z,10.68
2023-05-01T08:59:12.229Z,9.07
2023-05-01T09:01:43.255Z,11.00
2023-05-01T09:04:14.353Z,11.02
2023-05-01T09:06:45.069Z,11.50
2023-05-01T09:09:13.855Z,10.95
2023-05-01T09:11:46.006Z,10.70
2023-05-01T09:14:14.680Z,10.38
2023-05-01T09:16:43.573Z,11.60
2023-05-01T09:19:13.469Z,9.68
2023-05-01T09:21:42.609Z,12.43
2023-05-01T09:24:11.855Z,11.55
2023-05-01T09:26:42.861Z,11.77
2023-05-01T09:29:11.742Z,10.88
2023-05-01T09:31:40.658Z,13.15
2023-05-01T09:34:09.381Z,10.30
2023-05-01T09:36:40.925Z,14.65
2023-05-01T09:39:09.324Z,12.98
2023-05-01T09:41:53.688Z,11.27
2023-05-01T09:44:22.135Z,11.15
2023-05-01T09:46:50.817Z,11.52
2023-05-01T09:49:19.811Z,13.82
2023-05-01T09:51:51.256Z,12.07
2023-05-01T09:54:21.100Z,13.75
2023-05-01T09:56:51.216Z,13.50
2023-05-01T09:59:21.144Z,15.70
2023-05-01T10:01:52.263Z,15.07
2023-05-01T10:04:32.464Z,16.17
2023-05-01T10:07:13.709Z,14.07
2023-05-01T10:09:42.596Z,17.23
2023-05-01T10:12:11.360Z,17.17
2023-05-01T10:14:52.535Z,19.90
2023-05-01T10:17:21.385Z,17.60
2023-05-01T10:19:51.504Z,20.43
2023-05-01T10:22:22.057Z,18.33
2023-05-01T10:24:52.286Z,17.63
2023-05-01T10:27:25.082Z,18.47
2023-05-01T10:29:55.602Z,21.27
2023-05-01T10:32:24.595Z,21.03
2023-05-01T10:34:58.501Z,19.33
2023-05-01T10:37:39.119Z,17.30
2023-05-01T10:40:44.904Z,23.33
2023-05-01T10:43:25.903Z,20.40
2023-05-01T10:45:56.128Z,17.43
2023-05-01T10:48:59.519Z,19.23
2023-05-01T10:51:28.777Z,21.63
2023-05-01T10:54:26.956Z,20.10
2023-05-01T10:57:00.056Z,20.57
2023-05-01T10:59:29.569Z,19.47
2023-05-01T11:01:58.480Z,21.20
2023-05-01T11:04:49.229Z,23.03
2023-05-01T11:07:19.827Z,20.27
2023-05-01T11:09:54.399Z,19.53
2023-05-01T11:12:54.924Z,29.67
2023-05-01T11:15:34.365Z,25.87
2023-05-01T11:18:06.136Z,20.70
2023-05-01T11:21:03.952Z,18.63
2023-05-01T11:23:33.131Z,20.40
2023-05-01T11:26:06.763Z,22.53
2023-05-01T11:28:37.114Z,22.87
2023-05-01T11:31:05.905Z,19.43
2023-05-01T11:33:35.704Z,18.77
2023-05-01T11:36:05.019Z,20.73
2023-05-01T11:38:33.786Z,19.90
2023-05-01T11:41:04.454Z,21.60
2023-05-01T11:43:34.820Z,19.87
2023-05-01T11:46:04.124Z,20.03
2023-05-01T11:48:33.248Z,19.15
2023-05-01T11:51:02.037Z,20.10
2023-05-01T11:53:32.005Z,19.67
2023-05-01T11:56:00.969Z,18.90
2023-05-01T11:58:36.502Z,19.23
2023-05-01T12:01:07.501Z,21.23
2023-05-01T12:03:43.771Z,18.65
2023-05-01T12:06:14.255Z,17.00
2023-05-01T12:08:51.426Z,17.20
2023-05-01T12:11:21.526Z,19.50
2023-05-01T12:13:51.536Z,19.58
2023-05-01T12:16:20.387Z,21.38
2023-05-01T12:18:49.314Z,21.42
2023-05-01T12:21:19.008Z,19.25
2023-05-01T12:23:47.721Z,19.93
2023-05-01T12:26:23.620Z,18.83
2023-05-01T12:28:57.672Z,19.73
2023-05-01T12:31:27.898Z,18.20
2023-05-01T12:33:58.465Z,17.67
2023-05-01T12:36:29.220Z,16.67
2023-05-01T12:39:01.499Z,17.73
2023-05-01T12:41:40.446Z,20.10
2023-05-01T12:44:22.493Z,19.30
2023-05-01T12:47:01.051Z,19.30
2023-05-01T12:49:31.610Z,20.03
2023-05-01T12:52:03.599Z,22.10
2023-05-01T12:54:33.988Z,21.57
2023-05-01T12:57:10.778Z,22.53
2023-05-01T12:59:43.108Z,20.47
2023-05-01T13:02:14.935Z,18.93
2023-05-01T13:04:44.949Z,20.17
2023-05-01T13:07:15.047Z,21.00
2023-05-01T13:09:54.339Z,20.37
2023-05-01T13:12:23.420Z,21.77
2023-05-01T13:14:54.468Z,20.83
2023-05-01T13:17:29.258Z,21.53
2023-05-01T13:19:59.026Z,18.40
2023-05-01T13:22:32.906Z,20.55
2023-05-01T13:25:03.061Z,19.00
2023-05-01T13:27:31.701Z,19.15
2023-05-01T13:30:02.605Z,24.20
2023-05-01T13:32:33.152Z,19.55
2023-05-01T13:35:02.723Z,17.42
2023-05-01T13:37:32.542Z,16.20
2023-05-01T13:40:01.546Z,18.27
2023-05-01T13:42:30.720Z,16.35
2023-05-01T13:45:05.695Z,16.80
2023-05-01T13:47:34.498Z,15.13
2023-05-01T13:50:03.340Z,17.80
2023-05-01T13:52:32.344Z,16.38
2023-05-01T13:55:02.676Z,16.25
2023-05-01T13:57:33.013Z,15.90
2023-05-01T14:00:04.407Z,15.48
2023-05-01T14:02:46.517Z,14.82
2023-05-01T14:05:16.295Z,16.35
2023-05-01T14:07:52.087Z,13.18
2023-05-01T14:10:21.141Z,15.75
2023-05-01T14:12:49.763Z,16.25
2023-05-01T14:15:19.751Z,20.60
2023-05-01T14:17:50.749Z,14.68
2023-05-01T14:20:19.190Z,14.07
2023-05-01T14:22:52.479Z,14.80
2023-05-01T14:25:27.189Z,15.23
2023-05-01T14:27:57.678Z,15.50
2023-05-01T14:30:34.084Z,15.10
2023-05-01T14:33:04.232Z,16.40
2023-05-01T14:35:32.845Z,12.75
2023-05-01T14:38:08.979Z,14.27
2023-05-01T14:40:37.620Z,14.18
2023-05-01T14:43:07.098Z,13.25
2023-05-01T14:45:41.898Z,14.35
2023-05-01T14:48:11.592Z,15.52
2023-05-01T14:50:41.206Z,14.63
2023-05-01T14:53:09.633Z,15.05
2023-05-01T14:55:39.535Z,15.98
2023-05-01T14:58:07.840Z,15.65
2023-05-01T15:00:37.911Z,16.27
2023-05-01T15:03:06.685Z,14.77
2023-05-01T15:05:38.422Z,16.30
2023-05-01T15:08:08.307Z,13.13
2023-05-01T15:10:38.693Z,12.27
2023-05-01T15:13:08.940Z,12.85
2023-05-01T15:15:38.878Z,11.93
2023-05-01T15:18:07.970Z,13.18
2023-05-01T15:20:37.640Z,13.45
2023-05-01T15:23:06.297Z,14.95
2023-05-01T15:25:34.940Z,11.23
2023-05-01T15:28:03.491Z,13.45
2023-05-01T15:30:32.209Z,14.38
2023-05-01T15:33:02.020Z,13.70
2023-05-01T15:35:31.244Z,15.40
2023-05-01T15:37:59.899Z,14.98
2023-05-01T15:40:28.627Z,15.02
2023-05-01T15:42:57.415Z,13.65
2023-05-01T15:45:26.206Z,13.20
2023-05-01T15:47:55.095Z,13.73
2023-05-01T15:50:24.887Z,15.15
2023-05-01T15:52:53.640Z,14.88
2023-05-01T15:55:22.767Z,14.75
2023-05-01T15:57:51.435Z,13.70
2023-05-01T16:00:21.885Z,13.32
2023-05-01T16:02:50.696Z,16.05
2023-05-01T16:05:22.396Z,16.98
2023-05-01T16:07:56.536Z,17.83
2023-05-01T16:10:25.637Z,13.73
2023-05-01T16:12:54.858Z,15.60
2023-05-01T16:15:24.427Z,16.40
2023-05-01T16:17:54.885Z,20.52
2023-05-01T16:20:25.325Z,17.23
2023-05-01T16:22:55.325Z,17.38
2023-05-01T16:25:24.680Z,16.55
2023-05-01T16:27:53.324Z,21.73
2023-05-01T16:30:24.639Z,17.55
2023-05-01T16:32:53.376Z,16.08
2023-05-01T16:35:27.692Z,17.98
2023-05-01T16:37:57.541Z,18.63
2023-05-01T16:40:26.148Z,20.17
2023-05-01T16:42:56.278Z,18.25
2023-05-01T16:45:24.980Z,17.02
2023-05-01T16:47:53.704Z,17.23
2023-05-01T16:50:24.744Z,23.13
2023-05-01T16:52:55.003Z,19.42
2023-05-01T16:55:27.040Z,19.20
2023-05-01T16:57:55.768Z,21.83
2023-05-01T17:00:24.427Z,22.63
2023-05-01T17:02:55.109Z,21.10
2023-05-01T17:05:23.997Z,21.42
2023-05-01T17:07:52.636Z,21.10
2023-05-01T17:10:21.263Z,23.98
2023-05-01T17:12:51.360Z,22.08
2023-05-01T17:15:20.068Z,21.45
2023-05-01T17:17:49.132Z,21.65
2023-05-01T17:20:18.070Z,19.15
2023-05-01T17:22:46.942Z,23.65
2023-05-01T17:25:15.739Z,21.60
2023-05-01T17:27:44.410Z,19.48
2023-05-01T17:30:15.112Z,20.83
2023-05-01T17:32:43.894Z,21.35
2023-05-01T17:35:12.595Z,20.85
2023-05-01T17:37:41.288Z,20.73
2023-05-01T17:40:12.098Z,20.08
2023-05-01T17:42:40.947Z,22.02
2023-05-01T17:45:11.230Z,22.67
2023-05-01T17:47:46.571Z,21.23
2023-05-01T17:50:15.834Z,22.17
2023-05-01T17:52:45.338Z,22.25
2023-05-01T17:55:17.112Z,23.15
2023-05-01T17:57:47.844Z,22.65
2023-05-01T18:00:17.663Z,20.77
2023-05-01T18:02:47.905Z,20.83
2023-05-01T18:05:17.555Z,21.33
2023-05-01T18:07:46.261Z,24.88
2023-05-01T18:10:14.624Z,21.95
2023-05-01T18:12:43.536Z,22.10
2023-05-01T18:15:13.751Z,23.33
2023-05-01T18:17:44.531Z,24.15
2023-05-01T18:20:14.967Z,23.65
2023-05-01T18:22:43.582Z,27.55
2023-05-01T18:25:12.543Z,24.83
2023-05-01T18:27:41.740Z,21.17
2023-05-01T18:30:11.204Z,24.42
2023-05-01T18:32:48.365Z,22.40
2023-05-01T18:35:19.058Z,25.33
2023-05-01T18:37:48.347Z,24.38
2023-05-01T18:40:17.089Z,26.30
2023-05-01T18:42:46.512Z,24.45
2023-05-01T18:45:15.148Z,28.30
2023-05-01T18:47:43.578Z,25.40
2023-05-01T18:50:13.267Z,24.47
2023-05-01T18:52:42.910Z,23.95
2023-05-01T18:55:12.270Z,24.70
2023-05-01T18:57:43.705Z,24.10
2023-05-01T19:00:14.583Z,23.98
2023-05-01T19:02:43.451Z,24.20
2023-05-01T19:05:13.131Z,25.83
2023-05-01T19:07:42.887Z,23.03
2023-05-01T19:10:12.052Z,21.83
2023-05-01T19:12:41.987Z,23.83
2023-05-01T19:15:11.692Z,22.67
2023-05-01T19:17:41.088Z,26.33
2023-05-01T19:20:10.905Z,24.80
2023-05-01T19:22:39.283Z,22.33
2023-05-01T19:25:10.718Z,24.40
2023-05-01T19:27:39.155Z,28.05
2023-05-01T19:30:09.833Z,23.63
2023-05-01T19:32:39.012Z,21.83
2023-05-01T19:35:10.171Z,22.40
2023-05-01T19:37:39.778Z,24.00
2023-05-01T19:40:11.543Z,25.97
2023-05-01T19:42:39.978Z,27.08
2023-05-01T19:45:09.994Z,23.27
2023-05-01T19:47:38.764Z,24.02
2023-05-01T19:50:09.368Z,23.57
2023-05-01T19:52:38.044Z,23.67
2023-05-01T19:55:08.154Z,24.17
2023-05-01T19:57:38.167Z,22.25
2023-05-01T20:00:11.697Z,21.13
2023-05-01T20:02:40.518Z,20.50
2023-05-01T20:05:10.038Z,22.30
2023-05-01T20:07:39.231Z,20.80
2023-05-01T20:10:09.708Z,19.73
2023-05-01T20:12:39.952Z,20.60
2023-05-01T20:15:10.191Z,21.27
2023-05-01T20:17:38.949Z,20.83
2023-05-01T20:20:08.548Z,19.90
2023-05-01T20:22:36.873Z,20.17
2023-05-01T20:25:09.348Z,23.20
2023-05-01T20:27:39.957Z,20.00
2023-05-01T20:30:11.578Z,19.70
2023-05-01T20:32:42.700Z,17.77
2023-05-01T20:35:12.052Z,20.53
2023-05-01T20:37:41.408Z,18.60
2023-05-01T20:40:11.704Z,19.60
2023-05-01T20:42:42.998Z,18.60
2023-05-01T20:45:11.772Z,24.50
2023-05-01T20:47:40.470Z,19.33
2023-05-01T20:50:09.733Z,26.40
2023-05-01T20:52:39.001Z,26.60
2023-05-01T20:55:08.997Z,46.03
2023-05-01T20:57:37.684Z,41.93
2023-05-01T21:00:09.470Z,54.20
2023-05-01T21:02:39.385Z,44.58
2023-05-01T21:05:10.224Z,24.83
2023-05-01T21:07:39.626Z,21.33
2023-05-01T21:10:11.159Z,19.60
2023-05-01T21:12:40.249Z,22.83
2023-05-01T21:15:12.286Z,22.48
2023-05-01T21:17:43.377Z,26.35
2023-05-01T21:20:16.980Z,27.42
2023-05-01T21:22:48.053Z,26.55
2023-05-01T21:25:24.272Z,25.27
2023-05-01T21:27:52.981Z,24.60
2023-05-01T21:30:30.269Z,23.90
2023-05-01T21:32:58.890Z,21.45
2023-05-01T21:35:28.824Z,22.25
2023-05-01T21:37:57.854Z,25.02
2023-05-01T21:40:27.909Z,23.92
2023-05-01T21:42:56.844Z,22.27
2023-05-01T21:45:28.148Z,22.58
2023-05-01T21:47:57.805Z,24.10
2023-05-01T21:50:27.774Z,22.35
2023-05-01T21:52:56.443Z,22.23
2023-05-01T21:55:27.584Z,19.73
2023-05-01T21:57:56.323Z,22.17
2023-05-01T22:00:27.360Z,20.65
2023-05-01T22:02:56.595Z,19.17
2023-05-01T22:05:25.358Z,20.67
2023-05-01T22:07:54.998Z,23.00
2023-05-01T22:14:47.129Z,18.77
2023-05-01T22:17:23.902Z,18.20
2023-05-01T22:19:52.726Z,16.50
2023-05-01T22:22:21.196Z,18.97
2023-05-01T22:24:49.909Z,19.37
2023-05-01T22:27:18.591Z,17.17
2023-05-01T22:29:47.217Z,18.17
2023-05-01T22:32:17.034Z,14.93
2023-05-01T22:34:45.794Z,15.90
2023-05-01T22:37:14.271Z,18.23
2023-05-01T22:39:43.102Z,16.37
2023-05-01T22:42:11.910Z,17.33
2023-05-01T22:44:40.988Z,16.73
2023-05-01T22:47:09.539Z,18.90
2023-05-01T22:49:39.317Z,17.20
2023-05-01T22:52:08.372Z,18.57
2023-05-01T22:54:36.669Z,17.37
2023-05-01T22:57:05.404Z,18.33
2023-05-01T22:59:34.089Z,17.97
2023-05-01T23:02:04.982Z,19.37
2023-05-01T23:04:33.973Z,20.70
2023-05-01T23:07:03.827Z,19.60
2023-05-01T23:09:33.087Z,17.47
2023-05-01T23:12:02.035Z,21.23
2023-05-01T23:14:30.758Z,18.93
2023-05-01T23:17:02.012Z,21.23
2023-05-01T23:19:30.715Z,19.03
2023-05-01T23:22:09.705Z,21.57
2023-05-01T23:24:44.728Z,21.90
2023-05-01T23:27:15.865Z,20.80
2023-05-01T23:29:56.728Z,22.63
2023-05-01T23:32:29.374Z,18.40
2023-05-01T23:35:04.249Z,17.47
2023-05-01T23:37:34.319Z,17.90
2023-05-01T23:40:02.842Z,19.50
2023-05-01T23:42:32.124Z,19.23
2023-05-01T23:45:01.297Z,16.03
2023-05-01T23:47:30.623Z,16.73
2023-05-01T23:49:59.671Z,18.53
2023-05-01T23:52:28.504Z,18.87
2023-05-01T23:54:58.605Z,17.13
2023-05-01T23:57:27.503Z,20.00
2023-05-01T23:59:56.790Z,15.70
